createdAt,value
2019-02-24T12:52:09.674Z,8812.00
2019-02-24T12:53:09.647Z,9172.00
2019-02-24T12:54:09.646Z,9188.00
2019-02-24T12:55:09.625Z,9184.00
2019-02-24T12:56:09.614Z,9208.00
2019-02-24T12:57:09.601Z,9276.00
2019-02-24T12:58:09.591Z,9368.00
2019-02-24T12:59:09.588Z,9392.00
2019-02-24T13:00:09.570Z,9384.00
2019-02-24T13:01:09.558Z,9324.00
2019-02-24T13:02:09.560Z,9268.00
2019-02-24T13:03:09.538Z,9260.00
2019-02-24T13:04:09.532Z,9108.00
2019-02-24T13:05:09.510Z,9232.00
2019-02-24T13:06:09.500Z,9192.00
2019-02-24T13:07:09.492Z,9148.00
2019-02-24T13:08:09.478Z,9092.00
2019-02-24T13:09:09.474Z,9044.00
2019-02-24T13:10:09.454Z,9120.00
2019-02-24T13:11:09.446Z,11888.00
2019-02-24T13:12:09.439Z,31424.00
2019-02-24T13:13:09.427Z,38336.00
2019-02-24T13:14:09.419Z,18464.00
2019-02-24T13:15:09.402Z,17888.00
2019-02-24T13:16:09.390Z,37536.00
2019-02-24T13:17:09.377Z,43104.00
2019-02-24T13:18:09.367Z,42944.00
2019-02-24T13:19:09.374Z,42432.00
2019-02-24T13:20:10.103Z,41600.00
2019-02-24T13:21:09.333Z,40992.00
2019-02-24T13:22:09.323Z,40704.00
2019-02-24T13:23:09.313Z,41344.00
2019-02-24T13:24:09.308Z,42208.00
2019-02-24T13:25:09.991Z,29920.00
2019-02-24T13:26:09.278Z,12484.00
2019-02-24T13:27:09.306Z,24864.00
2019-02-24T13:28:09.258Z,38624.00
2019-02-24T13:29:09.254Z,37888.00
2019-02-24T13:30:09.236Z,26688.00
2019-02-24T13:31:09.226Z,16896.00
2019-02-24T13:32:14.929Z,15520.00
2019-02-24T13:33:10.211Z,14948.00
2019-02-24T13:34:09.198Z,15296.00
2019-02-24T13:35:09.178Z,18816.00
2019-02-24T13:36:09.171Z,14756.00
2019-02-24T13:37:09.161Z,7360.00
2019-02-24T13:38:09.148Z,7112.00
2019-02-24T13:39:09.143Z,6992.00
2019-02-24T13:40:09.134Z,6916.00
2019-02-24T13:41:09.115Z,6880.00
2019-02-24T13:42:09.103Z,6948.00
2019-02-24T13:43:09.092Z,7008.00
2019-02-24T13:44:09.104Z,7744.00
2019-02-24T13:45:09.068Z,8400.00
2019-02-24T13:46:09.057Z,9552.00
2019-02-24T13:47:09.045Z,9592.00
2019-02-24T13:48:09.036Z,8784.00
2019-02-24T13:49:09.035Z,7752.00
2019-02-24T13:50:09.019Z,9320.00
2019-02-24T13:51:09.004Z,9760.00
2019-02-24T13:52:08.995Z,9236.00
2019-02-24T13:53:08.986Z,14664.00
2019-02-24T13:54:08.977Z,14740.00
2019-02-24T13:55:08.960Z,9436.00
2019-02-24T13:56:08.947Z,15616.00
2019-02-24T13:57:08.943Z,17568.00
2019-02-24T13:58:08.930Z,19200.00
2019-02-24T13:59:08.925Z,19488.00
2019-02-24T14:00:08.902Z,9856.00
2019-02-24T14:01:08.889Z,6924.00
2019-02-24T14:02:08.879Z,7528.00
2019-02-24T14:03:08.871Z,7076.00
2019-02-24T14:04:08.875Z,6592.00
2019-02-24T14:05:08.844Z,6468.00
2019-02-24T14:06:08.854Z,6464.00
2019-02-24T14:07:08.823Z,6424.00
2019-02-24T14:08:08.814Z,6368.00
2019-02-24T14:09:08.801Z,7016.00
2019-02-24T14:10:08.798Z,12832.00
2019-02-24T14:11:08.779Z,16992.00
2019-02-24T14:12:08.770Z,13752.00
2019-02-24T14:13:08.755Z,10340.00
2019-02-24T14:14:09.958Z,6992.00
2019-02-24T14:15:08.748Z,6108.00
2019-02-24T14:16:08.723Z,6076.00
2019-02-24T14:17:08.712Z,6016.00
2019-02-24T14:18:08.698Z,5996.00
2019-02-24T14:19:08.691Z,6072.00
2019-02-24T14:20:08.693Z,6172.00
2019-02-24T14:21:08.670Z,6520.00
2019-02-24T14:22:09.798Z,11288.00
2019-02-24T14:23:08.643Z,18176.00
2019-02-24T14:24:08.632Z,20128.00
2019-02-24T14:25:08.632Z,21472.00
2019-02-24T14:26:08.608Z,24352.00
2019-02-24T14:27:08.599Z,24288.00
2019-02-24T14:28:08.589Z,24352.00
2019-02-24T14:29:08.578Z,24896.00
2019-02-24T14:30:08.572Z,24512.00
2019-02-24T14:31:08.554Z,23104.00
2019-02-24T14:32:08.545Z,18432.00
2019-02-24T14:33:08.530Z,11552.00
2019-02-24T14:34:08.519Z,6888.00
2019-02-24T14:35:08.517Z,5500.00
2019-02-24T14:36:08.497Z,5300.00
2019-02-24T14:37:08.497Z,5152.00
2019-02-24T14:38:08.473Z,4996.00
2019-02-24T14:39:08.463Z,4968.00
2019-02-24T14:40:08.472Z,9276.00
2019-02-24T14:41:09.005Z,9580.00
2019-02-24T14:42:08.431Z,5728.00
2019-02-24T14:43:08.417Z,11388.00
2019-02-24T14:44:08.404Z,20608.00
2019-02-24T14:45:08.395Z,15840.00
2019-02-24T14:46:08.392Z,8272.00
2019-02-24T14:47:08.372Z,6140.00
2019-02-24T14:48:08.365Z,12596.00
2019-02-24T14:49:08.353Z,17792.00
2019-02-24T14:50:08.346Z,10412.00
2019-02-24T14:51:08.338Z,4084.00
2019-02-24T14:52:08.324Z,3716.00
2019-02-24T14:53:08.310Z,3640.00
2019-02-24T14:54:08.295Z,3540.00
2019-02-24T14:55:08.289Z,3428.00
2019-02-24T14:56:08.303Z,3336.00
2019-02-24T14:57:08.262Z,3248.00
2019-02-24T14:58:08.251Z,3164.00
2019-02-24T14:59:08.243Z,3088.00
2019-02-24T15:00:08.226Z,2996.00
2019-02-24T15:01:08.224Z,2916.00
2019-02-24T15:02:08.203Z,2840.00
2019-02-24T15:03:08.213Z,2776.00
2019-02-24T15:04:08.181Z,2708.00
2019-02-24T15:05:08.191Z,2636.00
2019-02-24T15:06:08.185Z,2552.00
2019-02-24T15:07:08.153Z,2468.00
2019-02-24T15:08:08.141Z,2400.00
2019-02-24T15:09:08.123Z,2364.00
2019-02-24T15:10:08.111Z,2328.00
2019-02-24T15:11:08.105Z,2292.00
2019-02-24T15:12:08.089Z,2256.00
2019-02-24T15:13:08.087Z,2240.00
2019-02-24T15:14:08.063Z,2224.00
2019-02-24T15:15:08.077Z,2200.00
2019-02-24T15:16:08.074Z,2188.00
2019-02-24T15:17:08.029Z,2172.00
2019-02-24T15:18:08.018Z,2156.00
2019-02-24T15:19:08.124Z,2144.00
2019-02-24T15:20:08.005Z,2136.00
2019-02-24T15:21:07.997Z,2132.00
2019-02-24T15:22:08.011Z,2112.00
2019-02-24T15:23:07.986Z,2100.00
2019-02-24T15:24:07.951Z,2092.00
2019-02-24T15:25:07.943Z,2088.00
2019-02-24T15:26:07.937Z,2060.00
2019-02-24T15:27:07.939Z,2036.00
2019-02-24T15:28:07.907Z,2008.00
2019-02-24T15:29:08.768Z,1984.00
2019-02-24T15:30:07.895Z,1964.00
2019-02-24T15:31:07.888Z,1940.00
2019-02-24T15:32:07.893Z,1912.00
2019-02-24T15:33:07.874Z,1884.00
2019-02-24T15:34:07.876Z,1856.00
2019-02-24T15:35:07.829Z,1832.00
2019-02-24T15:36:07.817Z,1812.00
2019-02-24T15:37:07.825Z,1796.00
2019-02-24T15:38:07.792Z,1780.00
2019-02-24T15:39:07.791Z,1772.00
2019-02-24T15:40:07.771Z,1760.00
2019-02-24T15:41:07.761Z,1744.00
2019-02-24T15:42:08.219Z,1732.00
2019-02-24T15:43:07.742Z,1716.00
2019-02-24T15:44:07.725Z,1704.00
2019-02-24T15:45:07.756Z,1692.00
2019-02-24T15:46:07.702Z,1680.00
2019-02-24T15:47:07.711Z,1664.00
2019-02-24T15:48:07.683Z,1652.00
2019-02-24T15:49:07.670Z,1636.00
2019-02-24T15:50:07.659Z,1624.00
2019-02-24T15:51:07.657Z,1608.00
2019-02-24T15:52:10.159Z,1592.00
2019-02-24T15:53:07.640Z,1580.00
2019-02-24T15:54:07.631Z,1564.00
2019-02-24T15:55:07.605Z,1548.00
2019-02-24T15:56:07.589Z,1536.00
2019-02-24T15:57:07.579Z,1520.00
2019-02-24T15:58:07.579Z,1504.00
2019-02-24T15:59:07.561Z,1484.00
2019-02-24T16:00:07.547Z,1472.00
2019-02-24T16:01:07.532Z,1456.00
2019-02-24T16:02:07.523Z,1440.00
2019-02-24T16:03:07.529Z,1424.00
2019-02-24T16:04:07.534Z,1412.00
2019-02-24T16:05:07.588Z,1396.00
2019-02-24T16:06:07.475Z,1376.00
2019-02-24T16:07:07.465Z,1360.00
2019-02-24T16:08:07.461Z,1344.00
2019-02-24T16:09:07.484Z,1324.00
2019-02-24T16:10:07.439Z,1308.00
2019-02-24T16:11:07.449Z,1292.00
2019-02-24T16:12:07.407Z,1272.00
2019-02-24T16:13:16.437Z,1252.00
2019-02-24T16:14:08.385Z,1236.00
2019-02-24T16:15:07.379Z,1220.00
2019-02-24T16:16:07.361Z,1200.00
2019-02-24T16:17:07.350Z,1180.00
2019-02-24T16:18:07.354Z,1164.00
2019-02-24T16:19:07.327Z,1144.00
2019-02-24T16:20:07.318Z,1124.00
2019-02-24T16:21:07.310Z,1108.00
2019-02-24T16:22:07.298Z,1088.00
2019-02-24T16:23:07.292Z,1068.00
2019-02-24T16:24:07.269Z,1044.00
2019-02-24T16:25:07.265Z,1024.00
2019-02-24T16:26:07.251Z,1000.00
2019-02-24T16:27:07.237Z,984.00
2019-02-24T16:28:07.238Z,964.00
2019-02-24T16:29:07.221Z,940.00
2019-02-24T16:30:07.203Z,920.00
2019-02-24T16:31:07.193Z,900.00
2019-02-24T16:32:07.184Z,872.00
2019-02-24T16:33:10.504Z,848.00
2019-02-24T16:34:07.157Z,812.00
2019-02-24T16:35:07.159Z,776.00
2019-02-24T16:36:07.160Z,744.00
2019-02-24T16:37:07.123Z,720.00
2019-02-24T16:38:07.127Z,704.00
2019-02-24T16:39:07.102Z,676.00
2019-02-24T16:40:07.090Z,656.00
2019-02-24T16:41:07.081Z,632.00
2019-02-24T16:42:07.070Z,616.00
2019-02-24T16:43:07.064Z,588.00
2019-02-24T16:44:07.046Z,568.00
2019-02-24T16:45:07.035Z,540.00
2019-02-24T16:46:07.024Z,516.00
2019-02-24T16:47:07.013Z,492.00
2019-02-24T16:48:07.013Z,468.00
2019-02-24T16:49:06.990Z,440.00
2019-02-24T16:50:06.978Z,412.00
2019-02-24T16:51:06.967Z,388.00
2019-02-24T16:52:06.959Z,364.00
2019-02-24T16:53:06.997Z,340.00
2019-02-24T16:54:06.940Z,320.00
2019-02-24T16:55:06.919Z,300.00
2019-02-24T16:56:06.909Z,280.00
2019-02-24T16:57:07.536Z,260.00
2019-02-24T16:58:06.895Z,244.00
2019-02-24T16:59:06.875Z,220.00
2019-02-24T17:00:06.863Z,204.00
2019-02-24T17:01:06.852Z,188.00
2019-02-24T17:02:06.840Z,172.00
2019-02-24T17:03:06.857Z,156.00
2019-02-24T17:04:06.816Z,144.00
2019-02-24T17:05:06.807Z,128.00
2019-02-24T17:06:06.795Z,112.00
2019-02-24T17:07:06.783Z,100.00
2019-02-24T17:08:06.772Z,92.00
2019-02-24T17:09:06.770Z,84.00
2019-02-24T17:10:06.750Z,72.00
2019-02-24T17:11:07.741Z,64.00
2019-02-24T17:12:06.726Z,56.00
2019-02-24T17:13:06.716Z,52.00
2019-02-24T17:14:06.722Z,40.00
2019-02-24T17:15:06.693Z,36.00
2019-02-24T17:16:06.681Z,32.00
2019-02-24T17:17:06.668Z,24.00
2019-02-24T17:18:06.662Z,24.00
2019-02-24T17:19:06.658Z,20.00
2019-02-24T17:20:06.637Z,16.00
2019-02-24T17:21:06.625Z,12.00
2019-02-24T17:22:06.614Z,12.00
2019-02-24T17:23:06.603Z,8.00
2019-02-24T17:24:06.598Z,8.00
2019-02-24T17:25:06.579Z,8.00
2019-02-24T17:26:06.569Z,4.00
2019-02-24T17:27:06.565Z,4.00
2019-02-24T17:28:06.552Z,4.00
2019-02-24T17:29:06.543Z,4.00
2019-02-24T17:30:06.522Z,4.00
2019-02-24T17:31:07.117Z,4.00
2019-02-24T17:32:06.502Z,4.00
2019-02-24T17:33:06.491Z,0.00
2019-02-24T17:34:06.486Z,0.00
2019-02-24T17:35:06.465Z,0.00
2019-02-24T17:36:07.676Z,0.00
2019-02-24T17:37:06.448Z,0.00
2019-02-24T17:38:06.437Z,0.00
2019-02-24T17:39:06.427Z,0.00
2019-02-24T17:40:06.408Z,0.00
2019-02-24T17:41:06.397Z,0.00
2019-02-24T17:42:06.386Z,0.00
2019-02-24T17:43:06.375Z,0.00
2019-02-24T17:44:06.372Z,0.00
2019-02-24T17:45:06.351Z,0.00
2019-02-24T17:46:06.344Z,0.00
2019-02-24T17:47:06.330Z,0.00
2019-02-24T17:48:06.320Z,0.00
2019-02-24T17:49:06.319Z,0.00
2019-02-24T17:50:06.302Z,0.00
2019-02-24T17:51:06.285Z,0.00
2019-02-24T17:52:06.273Z,0.00
2019-02-24T17:53:06.262Z,0.00
2019-02-24T17:54:06.264Z,0.00
2019-02-24T17:55:06.242Z,0.00
2019-02-24T17:56:06.227Z,0.00
2019-02-24T17:57:06.218Z,0.00
2019-02-24T17:58:06.204Z,0.00
2019-02-24T17:59:06.200Z,0.00
2019-02-24T18:00:06.188Z,0.00
2019-02-24T18:01:06.169Z,0.00
2019-02-24T18:02:06.176Z,0.00
2019-02-24T18:03:06.147Z,0.00
2019-02-24T18:04:06.147Z,0.00
2019-02-24T18:05:06.123Z,0.00
2019-02-24T18:06:06.116Z,0.00
2019-02-24T18:07:06.100Z,0.00
2019-02-24T18:08:06.093Z,0.00
2019-02-24T18:09:06.102Z,0.00
2019-02-24T18:10:06.070Z,0.00
2019-02-24T18:11:06.055Z,0.00
2019-02-24T18:12:06.043Z,0.00
2019-02-24T18:13:06.033Z,0.00
2019-02-24T18:14:06.028Z,0.00
2019-02-24T18:15:06.025Z,0.00
2019-02-24T18:16:06.035Z,0.00
2019-02-24T18:17:05.991Z,0.00
2019-02-24T18:18:05.980Z,0.00
2019-02-24T18:19:05.966Z,0.00
2019-02-24T18:20:05.962Z,0.00
2019-02-24T18:21:06.618Z,0.00
2019-02-24T18:22:05.930Z,0.00
2019-02-24T18:23:05.925Z,0.00
2019-02-24T18:24:05.908Z,0.00
2019-02-24T18:25:05.906Z,0.00
2019-02-24T18:26:05.886Z,0.00
2019-02-24T18:27:05.875Z,0.00
2019-02-24T18:28:05.863Z,0.00
2019-02-24T18:29:05.856Z,0.00
2019-02-24T18:30:05.852Z,0.00
2019-02-24T18:31:05.828Z,0.00
2019-02-24T18:32:05.816Z,0.00
2019-02-24T18:33:05.806Z,0.00
2019-02-24T18:34:05.802Z,0.00
2019-02-24T18:35:05.816Z,0.00
2019-02-24T18:36:05.773Z,0.00
2019-02-24T18:37:05.759Z,0.00
2019-02-24T18:38:05.754Z,0.00
2019-02-24T18:39:05.737Z,0.00
2019-02-24T18:40:05.737Z,0.00
2019-02-24T18:41:05.718Z,0.00
2019-02-24T18:42:05.704Z,0.00
2019-02-24T18:43:05.691Z,0.00
2019-02-24T18:44:05.685Z,0.00
2019-02-24T18:45:05.668Z,0.00
2019-02-24T18:46:05.669Z,0.00
2019-02-24T18:47:05.649Z,0.00
2019-02-24T18:48:05.635Z,0.00
2019-02-24T18:49:05.624Z,0.00
2019-02-24T18:50:05.619Z,0.00
2019-02-24T18:51:05.612Z,0.00
2019-02-24T18:52:05.590Z,0.00
2019-02-24T18:53:06.472Z,0.00
2019-02-24T18:54:05.572Z,0.00
2019-02-24T18:55:06.840Z,0.00
2019-02-24T18:56:05.558Z,0.00
2019-02-24T18:57:05.533Z,0.00
2019-02-24T18:58:05.523Z,0.00
2019-02-24T18:59:05.519Z,0.00
2019-02-24T19:00:05.501Z,0.00
2019-02-24T19:01:05.498Z,0.00
2019-02-24T19:02:05.480Z,0.00
2019-02-24T19:03:05.467Z,0.00
2019-02-24T19:04:05.458Z,0.00
2019-02-24T19:05:05.445Z,0.00
2019-02-24T19:06:05.432Z,0.00
2019-02-24T19:07:05.434Z,0.00
2019-02-24T19:08:05.412Z,0.00
2019-02-24T19:09:05.398Z,0.00
2019-02-24T19:10:05.387Z,0.00
2019-02-24T19:11:05.377Z,0.00
2019-02-24T19:12:05.371Z,0.00
2019-02-24T19:13:05.354Z,0.00
2019-02-24T19:14:05.341Z,0.00
2019-02-24T19:15:05.329Z,0.00
2019-02-24T19:16:05.320Z,0.00
2019-02-24T19:17:05.317Z,0.00
2019-02-24T19:18:05.299Z,0.00
2019-02-24T19:19:05.286Z,0.00
2019-02-24T19:20:05.275Z,0.00
2019-02-24T19:21:05.265Z,0.00
2019-02-24T19:22:07.248Z,0.00
2019-02-24T19:23:05.239Z,0.00
2019-02-24T19:24:05.229Z,0.00
2019-02-24T19:25:05.221Z,0.00
2019-02-24T19:26:05.206Z,0.00
2019-02-24T19:27:05.208Z,0.00
2019-02-24T19:28:05.220Z,0.00
2019-02-24T19:29:05.174Z,0.00
2019-02-24T19:30:05.164Z,0.00
2019-02-24T19:31:05.148Z,0.00
2019-02-24T19:32:05.149Z,0.00
2019-02-24T19:33:05.130Z,0.00
2019-02-24T19:34:06.999Z,0.00
2019-02-24T19:35:05.106Z,0.00
2019-02-24T19:36:05.106Z,0.00
2019-02-24T19:37:05.091Z,0.00
2019-02-24T19:38:05.075Z,0.00
2019-02-24T19:39:05.061Z,0.00
2019-02-24T19:40:05.051Z,0.00
2019-02-24T19:41:05.037Z,0.00
2019-02-24T19:42:05.041Z,0.00
2019-02-24T19:43:05.014Z,0.00
2019-02-24T19:44:05.008Z,0.00
2019-02-24T19:45:04.998Z,0.00
2019-02-24T19:46:04.981Z,0.00
2019-02-24T19:47:04.979Z,0.00
2019-02-24T19:48:04.971Z,0.00
2019-02-24T19:49:04.949Z,0.00
2019-02-24T19:50:04.943Z,0.00
2019-02-24T19:51:04.924Z,0.00
2019-02-24T19:52:04.915Z,0.00
2019-02-24T19:53:04.934Z,0.00
2019-02-24T19:54:04.889Z,0.00
2019-02-24T19:55:04.911Z,0.00
2019-02-24T19:56:04.874Z,0.00
2019-02-24T19:57:04.860Z,0.00
2019-02-24T19:58:04.860Z,0.00
2019-02-24T19:59:04.834Z,0.00
2019-02-24T20:00:04.843Z,0.00
2019-02-24T20:01:04.865Z,0.00
2019-02-24T20:02:04.800Z,0.00
2019-02-24T20:03:04.815Z,0.00
2019-02-24T20:04:04.814Z,0.00
2019-02-24T20:05:04.765Z,0.00
2019-02-24T20:06:04.763Z,0.00
2019-02-24T20:07:04.743Z,0.00
2019-02-24T20:08:04.750Z,0.00
2019-02-24T20:09:04.750Z,0.00
2019-02-24T20:10:04.716Z,0.00
2019-02-24T20:11:04.698Z,0.00
2019-02-24T20:12:04.701Z,0.00
2019-02-24T20:13:04.674Z,0.00
2019-02-24T20:14:04.671Z,0.00
2019-02-24T20:15:04.652Z,0.00
2019-02-24T20:16:04.646Z,0.00
2019-02-24T20:17:04.629Z,0.00
2019-02-24T20:18:04.638Z,0.00
2019-02-24T20:19:04.633Z,0.00
2019-02-24T20:20:04.599Z,0.00
2019-02-24T20:21:04.605Z,0.00
2019-02-24T20:22:04.574Z,0.00
2019-02-24T20:23:04.569Z,0.00
2019-02-24T20:24:04.573Z,0.00
2019-02-24T20:25:04.554Z,0.00
2019-02-24T20:26:04.551Z,0.00
2019-02-24T20:27:04.529Z,0.00
2019-02-24T20:28:04.505Z,0.00
2019-02-24T20:29:04.509Z,0.00
2019-02-24T20:30:04.520Z,0.00
2019-02-24T20:31:04.495Z,0.00
2019-02-24T20:32:04.462Z,0.00
2019-02-24T20:33:04.465Z,0.00
2019-02-24T20:34:04.438Z,0.00
2019-02-24T20:35:04.453Z,0.00
2019-02-24T20:36:04.414Z,0.00
2019-02-24T20:37:04.404Z,0.00
2019-02-24T20:38:04.412Z,0.00
2019-02-24T20:39:04.380Z,0.00
2019-02-24T20:40:04.379Z,0.00
2019-02-24T20:41:04.363Z,0.00
2019-02-24T20:42:04.351Z,0.00
2019-02-24T20:43:04.338Z,0.00
2019-02-24T20:44:04.328Z,0.00
2019-02-24T20:45:04.329Z,0.00
2019-02-24T20:46:04.311Z,0.00
2019-02-24T20:47:04.293Z,0.00
2019-02-24T20:48:04.293Z,0.00
2019-02-24T20:49:04.273Z,0.00
2019-02-24T20:50:04.274Z,0.00
2019-02-24T20:51:04.246Z,0.00
2019-02-24T20:52:04.244Z,0.00
2019-02-24T20:53:04.243Z,0.00
2019-02-24T20:54:04.219Z,0.00
2019-02-24T20:55:04.212Z,0.00
2019-02-24T20:56:04.188Z,0.00
2019-02-24T20:57:05.742Z,0.00
2019-02-24T20:58:04.166Z,0.00
2019-02-24T20:59:04.155Z,0.00
2019-02-24T21:00:04.152Z,0.00
2019-02-24T21:01:04.136Z,0.00
2019-02-24T21:02:04.142Z,0.00
2019-02-24T21:03:04.108Z,0.00
2019-02-24T21:04:04.101Z,0.00
2019-02-24T21:05:04.100Z,0.00
2019-02-24T21:06:04.092Z,0.00
2019-02-24T21:07:04.062Z,0.00
2019-02-24T21:08:04.057Z,0.00
2019-02-24T21:09:04.042Z,0.00
2019-02-24T21:10:04.085Z,0.00
2019-02-24T21:11:04.027Z,0.00
2019-02-24T21:12:04.019Z,0.00
2019-02-24T21:13:04.012Z,0.00
2019-02-24T21:14:03.988Z,0.00
2019-02-24T21:15:03.991Z,0.00
2019-02-24T21:16:03.969Z,0.00
2019-02-24T21:17:03.952Z,0.00
2019-02-24T21:18:03.938Z,0.00
2019-02-24T21:19:03.927Z,0.00
2019-02-24T21:20:03.925Z,0.00
2019-02-24T21:21:03.922Z,0.00
2019-02-24T21:22:03.896Z,0.00
2019-02-24T21:23:03.888Z,0.00
2019-02-24T21:24:03.870Z,0.00
2019-02-24T21:25:03.867Z,0.00
2019-02-24T21:26:03.867Z,0.00
2019-02-24T21:27:03.847Z,0.00
2019-02-24T21:28:04.093Z,0.00
2019-02-24T21:29:03.891Z,0.00
2019-02-24T21:30:03.802Z,0.00
2019-02-24T21:31:03.800Z,0.00
2019-02-24T21:32:03.795Z,0.00
2019-02-24T21:33:03.770Z,0.00
2019-02-24T21:34:03.758Z,0.00
2019-02-24T21:35:03.750Z,0.00
2019-02-24T21:36:03.737Z,0.00
2019-02-24T21:37:03.743Z,0.00
2019-02-24T21:38:03.777Z,0.00
2019-02-24T21:39:03.701Z,0.00
2019-02-24T21:40:03.721Z,0.00
2019-02-24T21:41:03.680Z,0.00
2019-02-24T21:42:03.730Z,0.00
2019-02-24T21:43:03.663Z,0.00
2019-02-24T21:44:04.315Z,0.00
2019-02-24T21:45:03.638Z,0.00
2019-02-24T21:46:03.634Z,0.00
2019-02-24T21:47:03.630Z,0.00
2019-02-24T21:48:03.607Z,0.00
2019-02-24T21:49:03.589Z,0.00
2019-02-24T21:50:03.576Z,0.00
2019-02-24T21:51:03.570Z,0.00
2019-02-24T21:52:03.569Z,0.00
2019-02-24T21:53:03.542Z,0.00
2019-02-24T21:54:03.532Z,0.00
2019-02-24T21:55:03.533Z,0.00
2019-02-24T21:56:03.508Z,0.00
2019-02-24T21:57:03.527Z,0.00
2019-02-24T21:58:04.405Z,0.00
2019-02-24T21:59:03.476Z,0.00
2019-02-24T22:00:03.467Z,0.00
2019-02-24T22:01:03.451Z,0.00
2019-02-24T22:02:03.461Z,0.00
2019-02-24T22:03:03.433Z,0.00
2019-02-24T22:04:03.422Z,0.00
2019-02-24T22:05:03.415Z,0.00
2019-02-24T22:06:03.405Z,0.00
2019-02-24T22:07:03.382Z,0.00
2019-02-24T22:08:03.412Z,0.00
2019-02-24T22:09:03.364Z,0.00
2019-02-24T22:10:03.351Z,0.00
2019-02-24T22:11:03.338Z,0.00
2019-02-24T22:12:03.336Z,0.00
2019-02-24T22:13:03.332Z,0.00
2019-02-24T22:14:03.305Z,0.00
2019-02-24T22:15:03.321Z,0.00
2019-02-24T22:16:03.363Z,0.00
2019-02-24T22:17:03.281Z,0.00
2019-02-24T22:18:03.362Z,0.00
2019-02-24T22:19:03.248Z,0.00
2019-02-24T22:20:03.237Z,0.00
2019-02-24T22:21:03.247Z,0.00
2019-02-24T22:22:03.218Z,0.00
2019-02-24T22:23:03.222Z,0.00
2019-02-24T22:24:03.194Z,0.00
2019-02-24T22:25:03.180Z,0.00
2019-02-24T22:26:03.178Z,0.00
2019-02-24T22:27:03.237Z,0.00
2019-02-24T22:28:03.147Z,0.00
2019-02-24T22:29:03.146Z,0.00
2019-02-24T22:30:03.129Z,0.00
2019-02-24T22:31:03.145Z,0.00
2019-02-24T22:32:03.106Z,0.00
2019-02-24T22:33:03.094Z,0.00
2019-02-24T22:34:03.089Z,0.00
2019-02-24T22:35:03.070Z,0.00
2019-02-24T22:36:03.059Z,0.00
2019-02-24T22:37:03.045Z,0.00
2019-02-24T22:38:03.032Z,0.00
2019-02-24T22:39:03.035Z,0.00
2019-02-24T22:40:03.014Z,0.00
2019-02-24T22:41:03.026Z,0.00
2019-02-24T22:42:03.003Z,0.00
2019-02-24T22:43:03.009Z,0.00
2019-02-24T22:44:02.993Z,0.00
2019-02-24T22:45:02.954Z,0.00
2019-02-24T22:46:02.942Z,0.00
2019-02-24T22:47:02.936Z,0.00
2019-02-24T22:48:03.281Z,0.00
2019-02-24T22:49:02.926Z,0.00
2019-02-24T22:50:02.896Z,0.00
2019-02-24T22:51:02.887Z,0.00
2019-02-24T22:52:02.878Z,0.00
2019-02-24T22:53:02.873Z,0.00
2019-02-24T22:54:02.852Z,0.00
2019-02-24T22:55:02.850Z,0.00
2019-02-24T22:56:02.838Z,0.00
2019-02-24T22:57:02.821Z,0.00
2019-02-24T22:58:02.815Z,0.00
2019-02-24T22:59:02.795Z,0.00
2019-02-24T23:00:02.814Z,0.00
2019-02-24T23:01:02.775Z,0.00
2019-02-24T23:02:02.761Z,0.00
2019-02-24T23:03:02.751Z,0.00
2019-02-24T23:04:02.739Z,0.00
2019-02-24T23:05:02.781Z,0.00
2019-02-24T23:06:02.719Z,0.00
2019-02-24T23:07:02.716Z,0.00
2019-02-24T23:08:02.700Z,0.00
2019-02-24T23:09:02.683Z,0.00
2019-02-24T23:10:02.691Z,0.00
2019-02-24T23:11:02.661Z,0.00
2019-02-24T23:12:02.651Z,0.00
2019-02-24T23:13:02.638Z,0.00
2019-02-24T23:14:02.626Z,0.00
2019-02-24T23:15:02.632Z,0.00
2019-02-24T23:16:02.643Z,0.00
2019-02-24T23:17:02.594Z,0.00
2019-02-24T23:18:02.593Z,0.00
2019-02-24T23:19:02.580Z,0.00
2019-02-24T23:20:02.595Z,0.00
2019-02-24T23:21:02.574Z,0.00
2019-02-24T23:22:02.545Z,0.00
2019-02-24T23:23:02.523Z,0.00
2019-02-24T23:24:02.513Z,0.00
2019-02-24T23:25:02.529Z,0.00
2019-02-24T23:26:02.493Z,0.00
2019-02-24T23:27:02.498Z,0.00
2019-02-24T23:28:02.475Z,0.00
2019-02-24T23:29:02.458Z,0.00
2019-02-24T23:30:02.456Z,0.00
2019-02-24T23:31:02.442Z,0.00
2019-02-24T23:32:02.428Z,0.00
2019-02-24T23:33:02.409Z,0.00
2019-02-24T23:34:02.400Z,0.00
2019-02-24T23:35:02.390Z,0.00
2019-02-24T23:36:02.388Z,0.00
2019-02-24T23:37:02.368Z,0.00
2019-02-24T23:38:02.366Z,0.00
2019-02-24T23:39:02.344Z,0.00
2019-02-24T23:40:02.335Z,0.00
2019-02-24T23:41:02.338Z,0.00
2019-02-24T23:42:02.309Z,0.00
2019-02-24T23:43:02.309Z,0.00
2019-02-24T23:44:02.288Z,0.00
2019-02-24T23:45:09.741Z,0.00
2019-02-24T23:46:03.274Z,0.00
2019-02-24T23:47:02.258Z,0.00
2019-02-24T23:48:02.241Z,0.00
2019-02-24T23:49:02.232Z,0.00
2019-02-24T23:50:02.220Z,0.00
2019-02-24T23:51:02.224Z,0.00
2019-02-24T23:52:02.203Z,0.00
2019-02-24T23:53:02.185Z,0.00
2019-02-24T23:54:02.177Z,0.00
2019-02-24T23:55:02.184Z,0.00
2019-02-24T23:56:02.189Z,0.00
2019-02-24T23:57:02.143Z,0.00
2019-02-24T23:58:02.135Z,0.00
2019-02-24T23:59:02.120Z,0.00
